createdAt,value
2023-03-27T00:00:10.338Z,6.20
2023-03-27T00:02:37.864Z,6.10
2023-03-27T00:05:05.200Z,6.20
2023-03-27T00:07:31.779Z,6.10
2023-03-27T00:09:58.269Z,6.20
2023-03-27T00:12:24.794Z,6.30
2023-03-27T00:14:52.267Z,6.10
2023-03-27T00:17:19.262Z,6.10
2023-03-27T00:19:45.745Z,6.00
2023-03-27T00:22:12.779Z,5.90
2023-03-27T00:24:39.359Z,6.00
2023-03-27T00:27:06.591Z,5.90
2023-03-27T00:29:33.367Z,5.80
2023-03-27T00:32:00.119Z,5.90
2023-03-27T00:34:27.131Z,5.90
2023-03-27T00:36:53.737Z,5.70
2023-03-27T00:39:20.530Z,5.60
2023-03-27T00:41:47.355Z,5.60
2023-03-27T00:44:28.174Z,5.60
2023-03-27T00:46:55.268Z,5.40
2023-03-27T00:49:22.371Z,5.30
2023-03-27T00:51:49.629Z,5.10
2023-03-27T00:54:17.517Z,5.00
2023-03-27T00:56:45.116Z,4.90
2023-03-27T00:59:16.376Z,4.70
2023-03-27T01:01:43.757Z,4.70
2023-03-27T01:04:10.315Z,4.50
2023-03-27T01:06:38.433Z,4.30
2023-03-27T01:09:05.051Z,4.10
2023-03-27T01:11:31.735Z,3.90
2023-03-27T01:14:07.909Z,3.70
2023-03-27T01:16:53.369Z,3.70
2023-03-27T01:19:38.711Z,3.50
2023-03-27T01:22:15.489Z,3.50
2023-03-27T01:24:57.850Z,3.40
2023-03-27T01:27:43.363Z,3.20
2023-03-27T01:30:20.757Z,3.10
2023-03-27T01:33:06.077Z,3.00
2023-03-27T01:35:44.602Z,3.00
2023-03-27T01:38:43.761Z,2.70
2023-03-27T01:41:24.920Z,2.60
2023-03-27T01:44:04.964Z,2.60
2023-03-27T01:46:31.791Z,2.40
2023-03-27T01:49:05.948Z,2.60
2023-03-27T01:51:36.808Z,2.40
2023-03-27T01:54:12.150Z,2.50
2023-03-27T01:56:40.553Z,2.40
2023-03-27T01:59:11.306Z,2.30
2023-03-27T02:01:40.169Z,2.10
2023-03-27T02:04:09.356Z,1.90
2023-03-27T02:06:38.904Z,1.80
2023-03-27T02:09:31.645Z,2.00
2023-03-27T02:12:01.530Z,2.10
2023-03-27T02:14:30.690Z,2.20
2023-03-27T02:17:00.262Z,2.20
2023-03-27T02:19:33.615Z,2.30
2023-03-27T02:22:00.110Z,2.20
2023-03-27T02:24:26.635Z,2.20
2023-03-27T02:27:01.950Z,2.20
2023-03-27T02:29:31.353Z,2.10
2023-03-27T02:31:57.888Z,2.20
2023-03-27T02:34:33.610Z,2.10
2023-03-27T02:37:19.289Z,2.20
2023-03-27T02:39:53.915Z,2.30
2023-03-27T02:42:39.290Z,2.30
2023-03-27T02:45:13.931Z,2.40
2023-03-27T02:47:42.656Z,2.50
2023-03-27T02:50:13.784Z,2.50
2023-03-27T02:52:45.514Z,2.50
2023-03-27T02:55:20.793Z,2.30
2023-03-27T02:57:52.311Z,2.40
2023-03-27T03:00:23.767Z,2.40
2023-03-27T03:02:53.315Z,2.40
2023-03-27T03:05:22.143Z,2.40
2023-03-27T03:07:49.039Z,2.50
2023-03-27T03:10:16.343Z,2.50
2023-03-27T03:12:42.830Z,2.40
2023-03-27T03:15:10.566Z,2.40
2023-03-27T03:17:37.162Z,2.50
2023-03-27T03:20:05.580Z,2.50
2023-03-27T03:22:32.315Z,2.50
2023-03-27T03:24:58.816Z,2.50
2023-03-27T03:27:25.494Z,2.40
2023-03-27T03:29:52.419Z,2.30
2023-03-27T03:32:18.980Z,2.30
2023-03-27T03:34:48.535Z,2.30
2023-03-27T03:37:15.254Z,2.40
2023-03-27T03:39:41.808Z,2.30
2023-03-27T03:42:08.317Z,2.30
2023-03-27T03:44:34.908Z,2.40
2023-03-27T03:47:01.412Z,2.40
2023-03-27T03:49:27.917Z,2.50
2023-03-27T03:52:03.433Z,2.50
2023-03-27T03:54:31.553Z,2.50
2023-03-27T03:56:58.260Z,2.50
2023-03-27T03:59:25.491Z,2.50
2023-03-27T04:01:52.088Z,2.50
2023-03-27T04:04:18.675Z,2.60
2023-03-27T04:06:46.058Z,2.60
2023-03-27T04:09:12.656Z,2.50
2023-03-27T04:11:39.275Z,2.60
2023-03-27T04:14:06.173Z,2.70
2023-03-27T04:16:33.940Z,2.80
2023-03-27T04:19:01.055Z,2.80
2023-03-27T04:21:27.627Z,2.80
2023-03-27T04:23:54.195Z,2.90
2023-03-27T04:26:26.296Z,2.90
2023-03-27T04:28:54.160Z,2.90
2023-03-27T04:31:20.938Z,2.90
2023-03-27T04:33:52.091Z,2.80
2023-03-27T04:36:19.273Z,2.80
2023-03-27T04:38:47.809Z,2.80
2023-03-27T04:41:14.457Z,2.70
2023-03-27T04:43:41.736Z,2.80
2023-03-27T04:46:09.028Z,2.70
2023-03-27T04:48:38.302Z,2.70
2023-03-27T04:51:06.022Z,2.70
2023-03-27T04:53:35.340Z,2.70
2023-03-27T04:56:02.108Z,2.60
2023-03-27T04:58:28.673Z,2.60
2023-03-27T05:00:56.451Z,2.60
2023-03-27T05:03:28.291Z,2.60
2023-03-27T05:05:55.079Z,2.60
2023-03-27T05:08:21.799Z,2.60
2023-03-27T05:10:48.422Z,2.70
2023-03-27T05:13:15.357Z,2.70
2023-03-27T05:15:42.329Z,2.60
2023-03-27T05:18:09.131Z,2.60
2023-03-27T05:20:36.196Z,2.50
2023-03-27T05:23:02.712Z,2.60
2023-03-27T05:25:32.129Z,2.80
2023-03-27T05:27:59.648Z,2.70
2023-03-27T05:30:26.866Z,2.80
2023-03-27T05:32:53.954Z,2.70
2023-03-27T05:35:23.187Z,2.60
2023-03-27T05:37:50.732Z,2.60
2023-03-27T05:40:20.998Z,2.60
2023-03-27T05:42:48.002Z,2.70
2023-03-27T05:45:15.021Z,2.60
2023-03-27T05:47:46.288Z,2.70
2023-03-27T05:50:14.224Z,2.70
2023-03-27T05:52:40.951Z,2.70
2023-03-27T05:55:08.254Z,2.80
2023-03-27T05:57:38.364Z,2.80
2023-03-27T06:00:16.502Z,2.80
2023-03-27T06:02:43.774Z,2.90
2023-03-27T06:05:12.838Z,2.90
2023-03-27T06:07:41.611Z,3.00
2023-03-27T06:10:13.171Z,3.00
2023-03-27T06:12:41.965Z,3.00
2023-03-27T06:15:09.431Z,3.00
2023-03-27T06:17:38.208Z,2.90
2023-03-27T06:20:12.311Z,2.80
2023-03-27T06:22:42.233Z,2.70
2023-03-27T06:25:08.972Z,2.70
2023-03-27T06:27:35.489Z,2.60
2023-03-27T06:30:01.997Z,2.60
2023-03-27T06:32:28.508Z,2.50
2023-03-27T06:34:55.077Z,2.40
2023-03-27T06:37:21.557Z,2.30
2023-03-27T06:39:50.641Z,2.30
2023-03-27T06:42:17.439Z,2.30
2023-03-27T06:44:44.268Z,2.40
2023-03-27T06:47:10.865Z,2.40
2023-03-27T06:49:37.393Z,2.50
2023-03-27T06:52:03.971Z,2.50
2023-03-27T06:54:30.957Z,2.40
2023-03-27T06:57:00.728Z,2.40
2023-03-27T07:01:54.028Z,2.70
2023-03-27T07:04:21.219Z,2.70
2023-03-27T07:06:48.872Z,2.60
2023-03-27T07:09:15.810Z,2.50
2023-03-27T07:11:42.498Z,2.40
2023-03-27T07:14:09.214Z,2.30
2023-03-27T07:16:35.890Z,2.10
2023-03-27T07:19:02.667Z,2.10
2023-03-27T07:21:29.542Z,2.20
2023-03-27T07:23:56.167Z,2.20
2023-03-27T07:26:22.686Z,2.30
2023-03-27T07:28:50.481Z,2.40
2023-03-27T07:33:46.619Z,2.70
2023-03-27T07:36:14.150Z,2.80
2023-03-27T07:38:42.130Z,3.00
2023-03-27T07:41:09.243Z,3.00
2023-03-27T07:43:35.830Z,3.00
2023-03-27T07:46:03.237Z,2.90
2023-03-27T07:48:30.474Z,2.80
2023-03-27T07:51:07.305Z,2.80
2023-03-27T07:53:39.685Z,2.70
2023-03-27T07:56:08.646Z,2.80
2023-03-27T07:58:35.264Z,2.80
2023-03-27T08:01:02.696Z,2.70
2023-03-27T08:03:30.324Z,2.70
2023-03-27T08:05:58.580Z,2.70
2023-03-27T08:08:25.965Z,2.70
2023-03-27T08:10:56.853Z,2.60
2023-03-27T08:13:23.937Z,2.50
2023-03-27T08:15:50.441Z,2.40
2023-03-27T08:18:17.035Z,2.30
2023-03-27T08:20:43.634Z,2.30
2023-03-27T08:23:10.661Z,2.40
2023-03-27T08:25:37.163Z,2.50
2023-03-27T08:28:03.701Z,2.70
2023-03-27T08:30:30.510Z,3.00
2023-03-27T08:32:57.958Z,3.30
2023-03-27T08:35:24.574Z,3.60
2023-03-27T08:37:52.704Z,3.60
2023-03-27T08:40:29.494Z,3.60
2023-03-27T08:42:58.453Z,3.50
2023-03-27T08:45:27.183Z,3.50
2023-03-27T08:47:58.055Z,3.60
2023-03-27T08:50:31.978Z,3.70
2023-03-27T08:52:59.345Z,3.80
2023-03-27T08:55:33.813Z,3.80
2023-03-27T08:58:00.302Z,3.70
2023-03-27T09:00:31.786Z,3.70
2023-03-27T09:03:05.541Z,3.50
2023-03-27T09:05:47.874Z,3.30
2023-03-27T09:08:47.802Z,3.30
2023-03-27T09:11:22.198Z,3.60
2023-03-27T09:13:52.535Z,3.90
2023-03-27T09:16:30.885Z,4.00
2023-03-27T09:19:03.371Z,4.10
2023-03-27T09:21:45.710Z,4.20
2023-03-27T09:24:16.705Z,4.30
2023-03-27T09:26:43.185Z,4.30
2023-03-27T09:29:19.988Z,4.20
2023-03-27T09:31:48.500Z,4.20
2023-03-27T09:34:23.029Z,3.90
2023-03-27T09:36:49.752Z,3.80
2023-03-27T09:39:21.882Z,3.90
2023-03-27T09:41:50.272Z,4.00
2023-03-27T09:44:25.218Z,4.20
2023-03-27T09:46:56.878Z,4.50
2023-03-27T09:49:23.596Z,4.30
2023-03-27T09:51:51.596Z,4.10
2023-03-27T09:54:19.803Z,3.90
2023-03-27T09:56:48.015Z,4.00
2023-03-27T09:59:25.167Z,4.20
2023-03-27T10:01:54.887Z,4.10
2023-03-27T10:04:22.941Z,4.10
2023-03-27T10:06:49.500Z,4.10
2023-03-27T10:09:26.661Z,4.10
2023-03-27T10:12:00.313Z,4.30
2023-03-27T10:14:27.076Z,4.30
2023-03-27T10:16:54.263Z,4.40
2023-03-27T10:19:28.875Z,4.50
2023-03-27T10:21:56.613Z,4.30
2023-03-27T10:24:36.452Z,4.40
2023-03-27T10:27:17.072Z,4.60
2023-03-27T10:29:43.779Z,4.60
2023-03-27T10:32:11.130Z,4.70
2023-03-27T10:34:51.482Z,4.80
2023-03-27T10:37:39.155Z,4.70
2023-03-27T10:40:09.165Z,4.70
2023-03-27T10:42:36.353Z,4.80
2023-03-27T10:45:03.220Z,4.70
2023-03-27T10:47:33.667Z,4.80
2023-03-27T10:50:03.820Z,4.80
2023-03-27T10:52:36.574Z,4.70
2023-03-27T10:55:09.619Z,4.60
2023-03-27T10:57:37.966Z,4.70
2023-03-27T11:00:11.737Z,4.80
2023-03-27T11:02:41.871Z,5.00
2023-03-27T11:05:12.074Z,4.80
2023-03-27T11:07:50.851Z,4.50
2023-03-27T11:10:23.589Z,4.20
2023-03-27T11:12:55.522Z,3.80
2023-03-27T11:15:26.374Z,3.60
2023-03-27T11:18:14.316Z,3.70
2023-03-27T11:20:46.937Z,3.70
2023-03-27T11:23:17.512Z,3.80
2023-03-27T11:25:49.564Z,3.80
2023-03-27T11:28:39.475Z,4.00
2023-03-27T11:31:25.711Z,4.00
2023-03-27T11:33:54.997Z,4.20
2023-03-27T11:36:37.515Z,4.40
2023-03-27T11:39:09.619Z,4.60
2023-03-27T11:41:36.154Z,4.60
2023-03-27T11:44:03.946Z,4.80
2023-03-27T11:46:30.615Z,4.60
2023-03-27T11:49:10.883Z,4.40
2023-03-27T11:51:44.928Z,4.00
2023-03-27T11:54:30.052Z,3.60
2023-03-27T11:56:57.858Z,3.40
2023-03-27T11:59:30.711Z,3.20
2023-03-27T12:02:00.258Z,3.10
2023-03-27T12:04:38.226Z,3.10
2023-03-27T12:07:09.861Z,3.00
2023-03-27T12:09:58.198Z,3.20
2023-03-27T12:12:34.000Z,3.40
2023-03-27T12:15:00.771Z,3.40
2023-03-27T12:17:47.393Z,3.60
2023-03-27T12:20:38.349Z,3.70
2023-03-27T12:23:13.205Z,3.90
2023-03-27T12:25:52.101Z,4.30
2023-03-27T12:28:25.217Z,4.50
2023-03-27T12:31:15.171Z,4.50
2023-03-27T12:33:50.773Z,4.30
2023-03-27T12:36:19.655Z,4.00
2023-03-27T12:38:46.861Z,3.70
2023-03-27T12:41:23.931Z,3.50
2023-03-27T12:43:54.594Z,3.20
2023-03-27T12:46:24.210Z,3.10
2023-03-27T12:49:00.059Z,3.10
2023-03-27T12:51:58.966Z,3.20
2023-03-27T12:54:26.953Z,3.40
2023-03-27T12:57:06.838Z,3.50
2023-03-27T12:59:48.463Z,3.60
2023-03-27T13:02:27.288Z,3.70
2023-03-27T13:05:13.557Z,3.90
2023-03-27T13:08:02.874Z,3.40
2023-03-27T13:10:29.405Z,2.50
2023-03-27T13:13:15.065Z,2.00
2023-03-27T13:15:52.886Z,1.70
2023-03-27T13:18:31.874Z,1.80
2023-03-27T13:21:04.331Z,1.80
2023-03-27T13:23:43.317Z,1.80
2023-03-27T13:26:23.436Z,1.90
2023-03-27T13:28:54.306Z,2.00
2023-03-27T13:31:40.331Z,2.10
2023-03-27T13:34:29.945Z,2.30
2023-03-27T13:37:06.507Z,2.50
2023-03-27T13:39:40.901Z,2.70
2023-03-27T13:42:14.871Z,2.90
2023-03-27T13:44:52.981Z,3.20
2023-03-27T13:47:45.259Z,3.40
2023-03-27T13:50:29.785Z,3.60
2023-03-27T13:53:14.949Z,3.70
2023-03-27T13:55:59.818Z,3.80
2023-03-27T13:58:26.353Z,3.70
2023-03-27T14:01:00.463Z,3.30
2023-03-27T14:03:48.407Z,2.70
2023-03-27T14:06:27.546Z,2.30
2023-03-27T14:09:13.210Z,2.20
2023-03-27T14:11:39.733Z,2.20
2023-03-27T14:14:25.209Z,2.30
2023-03-27T14:16:59.239Z,2.40
2023-03-27T14:19:42.812Z,2.50
2023-03-27T14:22:17.343Z,2.70
2023-03-27T14:24:46.994Z,2.80
2023-03-27T14:27:18.688Z,3.20
2023-03-27T14:29:46.128Z,3.30
2023-03-27T14:32:15.197Z,3.40
2023-03-27T14:34:53.332Z,3.50
2023-03-27T14:37:29.179Z,3.60
2023-03-27T14:39:57.408Z,3.70
2023-03-27T14:42:32.838Z,3.90
2023-03-27T14:45:16.173Z,4.00
2023-03-27T14:47:42.902Z,4.10
2023-03-27T14:50:13.331Z,4.20
2023-03-27T14:52:39.906Z,4.10
2023-03-27T14:55:06.674Z,3.70
2023-03-27T14:57:34.059Z,3.30
2023-03-27T15:00:00.684Z,2.90
2023-03-27T15:02:31.797Z,2.60
2023-03-27T15:05:09.985Z,2.30
2023-03-27T15:07:37.589Z,2.00
2023-03-27T15:10:07.196Z,1.80
2023-03-27T15:12:34.069Z,1.70
2023-03-27T15:15:00.572Z,1.60
2023-03-27T15:17:30.451Z,1.80
2023-03-27T15:20:09.977Z,2.00
2023-03-27T15:22:37.613Z,2.10
2023-03-27T15:25:17.557Z,2.10
2023-03-27T15:27:52.583Z,2.20
2023-03-27T15:30:25.402Z,2.20
2023-03-27T15:32:53.144Z,2.30
2023-03-27T15:35:22.459Z,2.40
2023-03-27T15:37:49.121Z,2.40
2023-03-27T15:40:33.009Z,2.30
2023-03-27T15:43:18.822Z,2.20
2023-03-27T15:46:02.770Z,2.10
2023-03-27T15:48:30.974Z,2.20
2023-03-27T15:51:09.550Z,2.20
2023-03-27T15:53:36.512Z,2.20
2023-03-27T15:56:24.490Z,2.20
2023-03-27T15:58:52.785Z,2.20
2023-03-27T16:01:26.166Z,2.30
2023-03-27T16:03:58.534Z,2.30
2023-03-27T16:06:30.755Z,2.30
2023-03-27T16:08:57.669Z,2.40
2023-03-27T16:11:41.551Z,2.40
2023-03-27T16:14:26.503Z,2.40
2023-03-27T16:17:09.697Z,2.40
2023-03-27T16:19:43.640Z,2.50
2023-03-27T16:22:10.162Z,2.50
2023-03-27T16:24:36.670Z,2.50
2023-03-27T16:27:03.230Z,2.50
2023-03-27T16:29:29.722Z,2.50
2023-03-27T16:31:56.604Z,2.50
2023-03-27T16:34:23.738Z,2.50
2023-03-27T16:36:50.678Z,2.40
2023-03-27T16:39:17.223Z,2.40
2023-03-27T16:41:43.774Z,2.30
2023-03-27T16:44:10.270Z,2.30
2023-03-27T16:46:37.172Z,2.40
2023-03-27T16:49:03.860Z,2.30
2023-03-27T16:51:30.428Z,2.40
2023-03-27T16:53:57.390Z,2.50
2023-03-27T16:56:24.153Z,2.50
2023-03-27T16:58:50.950Z,2.50
2023-03-27T17:01:17.572Z,2.50
2023-03-27T17:03:44.245Z,2.60
2023-03-27T17:06:11.493Z,2.60
2023-03-27T17:08:38.345Z,2.60
2023-03-27T17:11:08.788Z,2.60
2023-03-27T17:13:35.970Z,2.60
2023-03-27T17:16:03.064Z,2.60
2023-03-27T17:18:29.639Z,2.60
2023-03-27T17:20:56.391Z,2.60
2023-03-27T17:23:23.291Z,2.60
2023-03-27T17:25:50.045Z,2.60
2023-03-27T17:28:16.591Z,2.60
2023-03-27T17:30:56.515Z,2.60
2023-03-27T17:33:28.480Z,2.50
2023-03-27T17:35:56.686Z,2.50
2023-03-27T17:38:24.094Z,2.60
2023-03-27T17:40:51.201Z,2.60
2023-03-27T17:43:18.143Z,2.60
2023-03-27T17:45:44.982Z,2.60
2023-03-27T17:48:11.494Z,2.60
2023-03-27T17:50:38.782Z,2.60
2023-03-27T17:53:05.360Z,2.50
2023-03-27T17:58:09.047Z,2.60
2023-03-27T18:00:37.321Z,2.60
2023-03-27T18:03:04.295Z,2.60
2023-03-27T18:05:31.021Z,2.60
2023-03-27T18:07:57.570Z,2.60
2023-03-27T18:10:24.306Z,2.60
2023-03-27T18:12:51.000Z,2.60
2023-03-27T18:15:17.524Z,2.40
2023-03-27T18:17:44.108Z,2.40
2023-03-27T18:20:10.729Z,2.20
2023-03-27T18:22:38.051Z,2.10
2023-03-27T18:25:08.739Z,2.10
2023-03-27T18:27:39.952Z,2.10
2023-03-27T18:30:12.183Z,2.10
2023-03-27T18:32:39.379Z,2.10
2023-03-27T18:35:06.728Z,2.10
2023-03-27T18:37:34.106Z,2.10
2023-03-27T18:40:00.788Z,2.00
2023-03-27T18:42:27.474Z,2.00
2023-03-27T18:44:54.154Z,2.00
2023-03-27T18:47:20.816Z,2.00
2023-03-27T18:49:49.101Z,2.00
2023-03-27T18:52:15.624Z,2.00
2023-03-27T18:54:43.332Z,1.90
2023-03-27T18:57:11.502Z,1.90
2023-03-27T18:59:38.009Z,2.00
2023-03-27T19:02:04.529Z,1.90
2023-03-27T19:04:31.485Z,1.90
2023-03-27T19:06:58.003Z,1.90
2023-03-27T19:09:34.467Z,1.90
2023-03-27T19:12:07.858Z,1.80
2023-03-27T19:14:34.833Z,1.80
2023-03-27T19:17:01.646Z,1.70
2023-03-27T19:19:28.330Z,1.80
2023-03-27T19:21:54.926Z,1.70
2023-03-27T19:24:21.441Z,1.70
2023-03-27T19:26:48.013Z,1.70
2023-03-27T19:29:14.675Z,1.70
2023-03-27T19:31:41.832Z,1.70
2023-03-27T19:34:08.402Z,1.60
2023-03-27T19:36:34.930Z,1.50
2023-03-27T19:39:01.467Z,1.40
2023-03-27T19:41:28.047Z,1.40
2023-03-27T19:43:54.539Z,1.40
2023-03-27T19:46:23.028Z,1.30
2023-03-27T19:48:49.815Z,1.30
2023-03-27T19:51:16.525Z,1.30
2023-03-27T19:53:43.452Z,1.40
2023-03-27T19:56:10.018Z,1.50
2023-03-27T19:58:36.596Z,1.50
2023-03-27T20:01:04.543Z,1.30
2023-03-27T20:03:31.433Z,1.30
2023-03-27T20:06:06.954Z,1.30
2023-03-27T20:08:37.829Z,1.20
2023-03-27T20:11:04.577Z,1.20
2023-03-27T20:13:31.883Z,1.10
2023-03-27T20:16:02.559Z,1.20
2023-03-27T20:18:32.745Z,1.20
2023-03-27T20:21:02.926Z,1.20
2023-03-27T20:23:31.988Z,1.30
2023-03-27T20:26:00.569Z,1.40
2023-03-27T20:28:27.310Z,1.50
2023-03-27T20:30:54.021Z,1.60
2023-03-27T20:33:20.849Z,1.60
2023-03-27T20:35:47.540Z,1.70
2023-03-27T20:38:14.827Z,1.70
2023-03-27T20:40:53.215Z,1.70
2023-03-27T20:43:22.820Z,1.80
2023-03-27T20:45:53.404Z,1.80
2023-03-27T20:48:22.239Z,1.80
2023-03-27T20:50:51.243Z,1.80
2023-03-27T20:53:31.113Z,1.80
2023-03-27T20:56:01.097Z,1.70
2023-03-27T20:58:28.161Z,1.90
2023-03-27T21:00:56.027Z,2.00
2023-03-27T21:03:23.065Z,1.90
2023-03-27T21:05:49.897Z,1.80
2023-03-27T21:08:16.449Z,1.70
2023-03-27T21:10:43.096Z,1.70
2023-03-27T21:13:09.667Z,1.70
2023-03-27T21:15:36.424Z,1.80
2023-03-27T21:18:03.048Z,1.80
2023-03-27T21:20:29.668Z,1.80
2023-03-27T21:22:56.228Z,1.90
2023-03-27T21:25:22.944Z,1.90
2023-03-27T21:27:49.464Z,1.80
2023-03-27T21:30:16.631Z,1.80
2023-03-27T21:32:43.341Z,1.80
2023-03-27T21:35:09.947Z,1.80
2023-03-27T21:37:36.782Z,1.80
2023-03-27T21:40:04.701Z,1.80
2023-03-27T21:42:31.288Z,1.90
2023-03-27T21:44:57.872Z,1.90
2023-03-27T21:47:31.713Z,1.80
2023-03-27T21:50:04.136Z,1.80
2023-03-27T21:52:30.711Z,1.80
2023-03-27T21:55:02.818Z,1.80
2023-03-27T21:57:29.999Z,1.80
2023-03-27T21:59:57.076Z,1.80
2023-03-27T22:02:23.900Z,1.90
2023-03-27T22:04:50.609Z,1.90
2023-03-27T22:07:17.158Z,1.90
2023-03-27T22:09:44.298Z,1.90
2023-03-27T22:12:11.082Z,2.00
2023-03-27T22:14:37.586Z,1.90
2023-03-27T22:17:04.654Z,1.90
2023-03-27T22:19:31.225Z,1.90
2023-03-27T22:21:57.743Z,1.90
2023-03-27T22:24:25.436Z,1.90
2023-03-27T22:26:51.984Z,1.90
2023-03-27T22:29:18.498Z,1.90
2023-03-27T22:31:45.818Z,1.90
2023-03-27T22:34:12.390Z,1.90
2023-03-27T22:36:38.930Z,1.90
2023-03-27T22:39:05.647Z,1.90
2023-03-27T22:41:32.198Z,1.90
2023-03-27T22:44:00.172Z,1.80
2023-03-27T22:46:27.464Z,1.80
2023-03-27T22:48:55.318Z,1.90
2023-03-27T22:51:22.247Z,1.80
2023-03-27T22:53:48.736Z,1.80
2023-03-27T22:56:15.509Z,1.90
2023-03-27T22:58:41.992Z,1.80
2023-03-27T23:01:08.488Z,1.90
2023-03-27T23:03:35.320Z,1.90
2023-03-27T23:06:02.382Z,1.90
2023-03-27T23:08:29.281Z,1.90
2023-03-27T23:10:57.138Z,1.90
2023-03-27T23:13:24.321Z,2.00
2023-03-27T23:15:51.757Z,2.00
2023-03-27T23:18:23.573Z,2.00
2023-03-27T23:20:54.622Z,2.00
2023-03-27T23:23:21.596Z,2.10
2023-03-27T23:25:48.103Z,2.00
2023-03-27T23:28:14.663Z,2.00
2023-03-27T23:30:44.391Z,2.00
2023-03-27T23:33:11.666Z,2.10
2023-03-27T23:35:38.314Z,2.00
2023-03-27T23:38:04.873Z,2.00
2023-03-27T23:40:34.572Z,1.90
2023-03-27T23:43:01.429Z,2.00
2023-03-27T23:45:27.939Z,2.00
2023-03-27T23:47:54.526Z,2.00
2023-03-27T23:50:21.137Z,2.00
2023-03-27T23:52:47.690Z,2.00
2023-03-27T23:55:14.241Z,2.00
2023-03-27T23:57:40.945Z,2.00
